Time;durP1;ratioP1;P1;durP2;ratioP2;P2;SDS_P1;SDS_P2;PMS_P1;PMS_P2;Temp;Humidity;BMP_temperature;BMP_pressure;BME280_temperature;BME280_humidity;BME280_pressure;Samples;Min_cycle;Max_cycle;Signal;HPM_P1;HPM_P2
2023/12/16 00:00:17;;;;;;;1.10;0.90;;;9.30;99.90;;;;;;4854647;29;20057;-63
2023/12/16 00:02:45;;;;;;;3.10;0.95;;;9.30;99.90;;;;;;4874479;29;20498;-63
2023/12/16 00:05:13;;;;;;;1.15;0.80;;;9.30;99.90;;;;;;4862570;29;20049;-69
2023/12/16 00:07:40;;;;;;;1.42;0.80;;;9.30;99.90;;;;;;4853936;29;20533;-72
2023/12/16 00:10:09;;;;;;;0.90;0.60;;;9.30;99.90;;;;;;4856558;29;20408;-72
2023/12/16 00:12:38;;;;;;;2.30;0.70;;;9.30;99.90;;;;;;4866589;29;20049;-70
2023/12/16 00:15:10;;;;;;;0.70;0.70;;;9.40;99.90;;;;;;4864413;29;20063;-69
2023/12/16 00:17:38;;;;;;;0.65;0.60;;;9.40;99.90;;;;;;4869837;29;20080;-71
2023/12/16 00:20:07;;;;;;;0.65;0.65;;;9.40;99.90;;;;;;4852801;29;20056;-63
2023/12/16 00:22:38;;;;;;;1.77;0.52;;;9.50;99.90;;;;;;4856855;29;20046;-71
2023/12/16 00:25:07;;;;;;;1.55;1.33;;;9.50;99.90;;;;;;4870176;29;20370;-70
2023/12/16 00:27:36;;;;;;;0.50;0.50;;;9.50;99.90;;;;;;4859532;29;20054;-70
2023/12/16 00:30:08;;;;;;;0.70;0.53;;;9.50;99.90;;;;;;4874360;29;20068;-65
2023/12/16 00:32:39;;;;;;;0.77;0.50;;;9.50;99.90;;;;;;4864946;29;20045;-64
2023/12/16 00:35:08;;;;;;;0.90;0.40;;;9.60;99.90;;;;;;4866476;29;20046;-61
2023/12/16 00:37:36;;;;;;;1.48;0.50;;;9.50;99.90;;;;;;4870674;29;20054;-66
2023/12/16 00:40:05;;;;;;;1.00;0.50;;;9.50;99.90;;;;;;4861778;29;20053;-62
2023/12/16 00:42:33;;;;;;;2.58;0.63;;;9.60;99.90;;;;;;4856019;29;20502;-61
2023/12/16 00:45:02;;;;;;;0.30;0.30;;;9.60;99.90;;;;;;4866303;29;20707;-63
2023/12/16 00:47:30;;;;;;;0.55;0.52;;;9.60;99.90;;;;;;4855317;29;20053;-62
2023/12/16 00:49:58;;;;;;;0.47;0.40;;;9.60;99.90;;;;;;4863378;29;20064;-62
2023/12/16 00:52:27;;;;;;;0.38;0.20;;;9.60;99.90;;;;;;4862941;29;20049;-62
2023/12/16 00:54:55;;;;;;;0.50;0.30;;;9.60;99.90;;;;;;4869736;29;20049;-66
2023/12/16 00:57:23;;;;;;;0.30;0.30;;;9.60;99.90;;;;;;4868680;29;20056;-66
2023/12/16 00:59:51;;;;;;;0.30;0.30;;;9.60;99.90;;;;;;4867331;29;20052;-62
2023/12/16 01:02:18;;;;;;;0.25;0.13;;;9.60;99.90;;;;;;4866606;29;20061;-61
2023/12/16 01:04:46;;;;;;;0.88;0.40;;;9.70;99.90;;;;;;4859069;29;20482;-61
2023/12/16 01:07:14;;;;;;;0.80;0.47;;;9.70;99.90;;;;;;4856316;29;20061;-61
2023/12/16 01:09:42;;;;;;;1.30;0.38;;;9.80;99.90;;;;;;4875005;29;20049;-61
2023/12/16 01:12:10;;;;;;;1.92;0.50;;;9.90;99.90;;;;;;4856264;29;20521;-62
2023/12/16 01:14:39;;;;;;;1.90;0.70;;;9.90;99.90;;;;;;4862095;29;20045;-60
2023/12/16 01:17:08;;;;;;;0.93;0.60;;;10.00;99.90;;;;;;4873620;29;20056;-62
2023/12/16 01:19:36;;;;;;;0.55;0.47;;;10.00;99.90;;;;;;4859099;29;20557;-65
2023/12/16 01:22:04;;;;;;;0.65;0.55;;;10.00;99.90;;;;;;4860513;29;20048;-61
2023/12/16 01:24:36;;;;;;;0.35;0.35;;;10.00;99.90;;;;;;4865335;29;20659;-61
2023/12/16 01:27:05;;;;;;;1.95;0.50;;;10.10;99.90;;;;;;4858991;29;20054;-63
2023/12/16 01:29:32;;;;;;;0.60;0.40;;;10.10;99.90;;;;;;4867122;29;20045;-66
2023/12/16 01:32:00;;;;;;;2.80;0.50;;;10.10;99.90;;;;;;4858762;29;20064;-62
2023/12/16 01:34:28;;;;;;;0.60;0.60;;;10.10;99.90;;;;;;4869576;29;20048;-63
2023/12/16 01:36:56;;;;;;;1.20;0.55;;;10.10;99.90;;;;;;4876575;29;20053;-62
2023/12/16 01:39:24;;;;;;;0.50;0.40;;;10.10;99.90;;;;;;4872997;29;20048;-63
2023/12/16 01:41:52;;;;;;;1.13;0.35;;;10.10;99.90;;;;;;4858240;29;20061;-64
2023/12/16 01:44:20;;;;;;;2.33;0.28;;;10.10;99.90;;;;;;4862120;29;20050;-62
2023/12/16 01:46:48;;;;;;;2.30;0.50;;;10.10;99.90;;;;;;4857226;29;20049;-63
2023/12/16 01:49:17;;;;;;;1.48;0.40;;;10.20;99.90;;;;;;4870954;29;20069;-63
2023/12/16 01:51:45;;;;;;;0.40;0.30;;;10.20;99.90;;;;;;4872749;29;20069;-62
2023/12/16 01:54:13;;;;;;;0.20;0.20;;;10.30;99.90;;;;;;4861275;29;20434;-62
2023/12/16 01:56:42;;;;;;;1.02;0.52;;;10.20;99.90;;;;;;4876113;29;20520;-63
2023/12/16 01:59:10;;;;;;;0.88;0.50;;;10.30;99.90;;;;;;4861400;29;20514;-63
2023/12/16 02:01:38;;;;;;;0.98;0.30;;;10.30;99.90;;;;;;4859392;29;20064;-63
2023/12/16 02:04:07;;;;;;;0.80;0.20;;;10.30;99.90;;;;;;4859395;29;20050;-63
2023/12/16 02:06:35;;;;;;;1.55;0.25;;;10.30;99.90;;;;;;4869454;29;20049;-62
2023/12/16 02:09:03;;;;;;;0.30;0.20;;;10.30;99.90;;;;;;4860639;29;20066;-63
2023/12/16 02:11:31;;;;;;;0.10;0.10;;;10.30;99.90;;;;;;4864767;29;20053;-62
2023/12/16 02:13:58;;;;;;;0.20;0.20;;;10.30;99.90;;;;;;4870677;29;20058;-63
2023/12/16 02:16:26;;;;;;;0.77;0.20;;;10.30;99.90;;;;;;4875625;29;20067;-62
2023/12/16 02:18:54;;;;;;;0.43;0.22;;;10.30;99.90;;;;;;4873872;29;20505;-64
2023/12/16 02:21:22;;;;;;;0.25;0.20;;;10.20;99.90;;;;;;4863757;29;20041;-62
2023/12/16 02:23:50;;;;;;;0.95;0.10;;;10.20;99.90;;;;;;4872728;29;20070;-64
2023/12/16 02:26:18;;;;;;;0.20;0.20;;;10.10;99.90;;;;;;4861907;29;20072;-62
2023/12/16 02:28:45;;;;;;;0.50;0.30;;;10.10;99.90;;;;;;4870019;29;20060;-64
2023/12/16 02:31:13;;;;;;;0.20;0.20;;;10.10;99.90;;;;;;4871738;29;20045;-62
2023/12/16 02:33:41;;;;;;;0.63;0.10;;;10.00;99.90;;;;;;4871721;29;20057;-62
2023/12/16 02:36:09;;;;;;;0.73;0.10;;;10.00;99.90;;;;;;4874660;29;20049;-63
2023/12/16 02:38:37;;;;;;;0.20;0.20;;;9.90;99.90;;;;;;4871109;29;20440;-62
2023/12/16 02:41:05;;;;;;;0.68;0.10;;;9.90;99.90;;;;;;4870908;29;20068;-62
2023/12/16 02:43:33;;;;;;;0.00;0.00;;;9.90;99.90;;;;;;4857391;29;20397;-63
2023/12/16 02:46:01;;;;;;;0.52;0.08;;;9.90;99.90;;;;;;4871642;29;20056;-62
2023/12/16 02:48:29;;;;;;;0.00;0.00;;;9.90;99.90;;;;;;4866488;29;20057;-62
2023/12/16 02:50:57;;;;;;;0.00;0.00;;;9.90;99.90;;;;;;4858262;29;20490;-63
2023/12/16 02:53:24;;;;;;;0.13;0.13;;;9.90;99.90;;;;;;4856369;29;20045;-62
2023/12/16 02:55:52;;;;;;;0.10;0.10;;;9.90;99.90;;;;;;4866579;29;20401;-65
2023/12/16 02:58:20;;;;;;;0.00;0.00;;;9.90;99.90;;;;;;4873218;29;20065;-62
2023/12/16 03:00:48;;;;;;;0.30;0.10;;;9.90;99.90;;;;;;4874143;29;20393;-62
2023/12/16 03:03:16;;;;;;;0.10;0.10;;;9.90;99.90;;;;;;4874997;29;20478;-62
2023/12/16 03:05:44;;;;;;;0.43;0.20;;;9.80;99.90;;;;;;4865888;29;20497;-62
2023/12/16 03:08:12;;;;;;;0.10;0.10;;;9.80;99.90;;;;;;4861131;29;20045;-62
2023/12/16 03:10:39;;;;;;;0.00;0.00;;;9.80;99.90;;;;;;4873827;29;20509;-63
2023/12/16 03:13:07;;;;;;;0.00;0.00;;;9.80;99.90;;;;;;4860015;29;20084;-62
2023/12/16 03:15:35;;;;;;;0.00;0.00;;;9.80;99.90;;;;;;4860110;29;20052;-62
2023/12/16 03:18:04;;;;;;;0.20;0.20;;;9.80;99.90;;;;;;4857088;29;20534;-62
2023/12/16 03:20:32;;;;;;;0.10;0.00;;;9.70;99.90;;;;;;4856229;29;20052;-62
2023/12/16 03:22:59;;;;;;;0.00;0.00;;;9.70;99.90;;;;;;4873319;29;20064;-63
2023/12/16 03:25:27;;;;;;;0.80;0.00;;;9.70;99.90;;;;;;4869566;29;20045;-63
2023/12/16 03:27:55;;;;;;;0.00;0.00;;;9.70;99.90;;;;;;4855985;29;20045;-62
2023/12/16 03:30:23;;;;;;;0.20;0.00;;;9.70;99.90;;;;;;4856967;29;20060;-62
2023/12/16 03:32:51;;;;;;;0.20;0.20;;;9.70;99.90;;;;;;4872160;29;20064;-61
2023/12/16 03:35:18;;;;;;;0.35;0.00;;;9.70;99.90;;;;;;4871122;29;20056;-62
2023/12/16 03:37:47;;;;;;;0.00;0.00;;;9.70;99.90;;;;;;4856107;29;20062;-64
2023/12/16 03:40:15;;;;;;;0.00;0.00;;;9.60;99.90;;;;;;4862779;29;20409;-62
2023/12/16 03:42:43;;;;;;;0.10;0.10;;;9.70;99.90;;;;;;4860699;29;20064;-61
2023/12/16 03:45:12;;;;;;;0.22;0.17;;;9.70;99.90;;;;;;4860008;29;20521;-61
2023/12/16 03:47:40;;;;;;;0.00;0.00;;;9.70;99.90;;;;;;4876628;29;20512;-65
2023/12/16 03:50:08;;;;;;;0.00;0.00;;;9.70;99.90;;;;;;4865665;29;20529;-61
2023/12/16 03:52:36;;;;;;;0.00;0.00;;;9.70;99.90;;;;;;4877307;29;20068;-68
2023/12/16 03:55:05;;;;;;;0.10;0.00;;;9.70;99.90;;;;;;4873073;29;20053;-70
2023/12/16 03:57:33;;;;;;;0.00;0.00;;;9.60;99.90;;;;;;4857317;29;20046;-72
2023/12/16 04:00:01;;;;;;;0.00;0.00;;;9.60;99.90;;;;;;4865808;29;20671;-70
2023/12/16 04:02:38;;;;;;;0.25;0.00;;;9.60;99.90;;;;;;4874299;29;20056;-63
2023/12/16 04:05:07;;;;;;;0.10;0.03;;;9.50;99.90;;;;;;4874638;29;20076;-64
2023/12/16 04:07:35;;;;;;;0.10;0.10;;;9.50;99.90;;;;;;4862586;29;20482;-71
2023/12/16 04:10:04;;;;;;;0.13;0.10;;;9.50;99.90;;;;;;4866900;29;20300;-61
2023/12/16 04:12:33;;;;;;;0.00;0.00;;;9.50;99.90;;;;;;4880388;29;20053;-62
2023/12/16 04:15:00;;;;;;;0.05;0.05;;;9.50;99.90;;;;;;4878567;29;20498;-61
2023/12/16 04:17:29;;;;;;;0.10;0.10;;;9.50;99.90;;;;;;4881063;29;20050;-62
2023/12/16 04:19:56;;;;;;;0.00;0.00;;;9.50;99.90;;;;;;4880400;29;20052;-61
2023/12/16 04:22:24;;;;;;;0.15;0.00;;;9.50;99.90;;;;;;4880881;29;20053;-61
2023/12/16 04:24:57;;;;;;;0.45;0.45;;;9.40;99.90;;;;;;4880637;29;20059;-64
2023/12/16 04:27:26;;;;;;;0.00;0.00;;;9.40;99.90;;;;;;4862435;29;20052;-61
2023/12/16 04:29:54;;;;;;;0.00;0.00;;;9.40;99.90;;;;;;4865354;29;20053;-66
2023/12/16 04:32:22;;;;;;;0.20;0.10;;;9.40;99.90;;;;;;4880727;29;20057;-63
2023/12/16 04:34:51;;;;;;;0.25;0.00;;;9.40;99.90;;;;;;4871792;29;20053;-68
2023/12/16 04:37:19;;;;;;;0.10;0.00;;;9.40;99.90;;;;;;4863228;29;20060;-70
2023/12/16 04:39:47;;;;;;;1.65;0.10;;;9.40;99.90;;;;;;4862188;29;20053;-64
2023/12/16 04:42:15;;;;;;;0.08;0.05;;;9.40;99.90;;;;;;4861812;29;20053;-69
2023/12/16 04:44:43;;;;;;;0.13;0.13;;;9.40;99.90;;;;;;4861939;29;20053;-71
2023/12/16 04:47:11;;;;;;;0.75;0.15;;;9.40;99.90;;;;;;4878107;29;20052;-64
2023/12/16 04:49:42;;;;;;;0.10;0.10;;;9.40;99.90;;;;;;4870434;29;20059;-70
2023/12/16 04:52:09;;;;;;;0.08;0.08;;;9.40;99.90;;;;;;4861703;29;20053;-72
2023/12/16 04:54:37;;;;;;;0.17;0.17;;;9.40;99.90;;;;;;4861682;29;20140;-71
2023/12/16 04:57:05;;;;;;;0.93;0.10;;;9.50;99.90;;;;;;4876131;29;20200;-69
2023/12/16 04:59:33;;;;;;;0.38;0.20;;;9.40;99.90;;;;;;4879903;29;20044;-71
2023/12/16 05:02:01;;;;;;;0.50;0.10;;;9.40;99.90;;;;;;4861459;29;20057;-62
2023/12/16 05:04:28;;;;;;;0.10;0.10;;;9.40;99.90;;;;;;4861616;29;20050;-61
2023/12/16 05:06:57;;;;;;;0.10;0.10;;;9.40;99.90;;;;;;4861575;29;20049;-62
2023/12/16 05:09:24;;;;;;;0.38;0.10;;;9.40;99.90;;;;;;4861381;29;20069;-61
2023/12/16 05:11:52;;;;;;;0.63;0.20;;;9.40;99.90;;;;;;4861584;29;20052;-61
2023/12/16 05:14:20;;;;;;;0.30;0.20;;;9.40;99.90;;;;;;4861395;29;20053;-64
2023/12/16 05:16:48;;;;;;;0.30;0.30;;;9.30;99.90;;;;;;4870696;29;20051;-64
2023/12/16 05:19:16;;;;;;;0.10;0.10;;;9.30;99.90;;;;;;4866372;29;20049;-68
2023/12/16 05:21:44;;;;;;;0.20;0.20;;;9.30;99.90;;;;;;4877270;29;20385;-72
2023/12/16 05:24:12;;;;;;;0.20;0.20;;;9.20;99.90;;;;;;4879782;29;20067;-70
2023/12/16 05:26:39;;;;;;;1.13;0.20;;;9.20;99.90;;;;;;4871607;29;20052;-69
2023/12/16 05:29:07;;;;;;;0.25;0.20;;;9.20;99.90;;;;;;4860010;29;20049;-65
2023/12/16 05:31:35;;;;;;;0.30;0.30;;;9.30;99.90;;;;;;4872428;29;20045;-63
2023/12/16 05:34:03;;;;;;;1.55;0.40;;;9.20;99.90;;;;;;4859807;29;20049;-62
2023/12/16 05:36:30;;;;;;;0.55;0.30;;;9.20;99.90;;;;;;4871573;29;20053;-60
2023/12/16 05:38:58;;;;;;;1.85;0.40;;;9.20;99.90;;;;;;4860995;29;20053;-60
2023/12/16 05:41:26;;;;;;;0.30;0.30;;;9.20;99.90;;;;;;4861191;29;20049;-71
2023/12/16 05:43:55;;;;;;;1.48;0.50;;;9.20;99.90;;;;;;4861022;29;20061;-71
2023/12/16 05:46:22;;;;;;;0.73;0.40;;;9.20;99.90;;;;;;4866116;29;20064;-69
2023/12/16 05:48:51;;;;;;;0.30;0.30;;;9.10;99.90;;;;;;4861855;29;20053;-71
2023/12/16 05:51:19;;;;;;;0.30;0.30;;;9.20;99.90;;;;;;4859979;29;20049;-62
2023/12/16 05:53:46;;;;;;;0.43;0.38;;;9.10;99.90;;;;;;4858504;29;20056;-62
2023/12/16 05:56:14;;;;;;;0.80;0.30;;;9.10;99.90;;;;;;4861831;29;20044;-63
2023/12/16 05:58:42;;;;;;;0.52;0.47;;;9.10;99.90;;;;;;4875788;29;20059;-60
2023/12/16 06:01:10;;;;;;;0.25;0.25;;;9.10;99.90;;;;;;4874705;29;20049;-61
2023/12/16 06:03:37;;;;;;;0.38;0.28;;;9.10;99.90;;;;;;4863887;29;20378;-61
2023/12/16 06:06:05;;;;;;;0.10;0.10;;;9.10;99.90;;;;;;4858262;29;20061;-61
2023/12/16 06:08:34;;;;;;;0.25;0.20;;;9.10;99.90;;;;;;4861407;29;20064;-62
2023/12/16 06:11:02;;;;;;;1.02;0.20;;;9.20;99.90;;;;;;4862332;29;20049;-62
2023/12/16 06:13:29;;;;;;;0.63;0.30;;;9.10;99.90;;;;;;4865377;29;20490;-63
2023/12/16 06:15:59;;;;;;;0.95;0.50;;;9.10;99.90;;;;;;4857039;29;20044;-62
2023/12/16 06:18:47;;;;;;;0.50;0.40;;;9.10;99.90;;;;;;4859714;29;20068;-62
2023/12/16 06:21:18;;;;;;;1.30;0.50;;;9.10;99.90;;;;;;4858558;29;20044;-62
2023/12/16 06:23:45;;;;;;;1.10;0.60;;;9.10;99.90;;;;;;4867602;29;20060;-62
2023/12/16 06:26:13;;;;;;;0.73;0.50;;;9.10;99.90;;;;;;4870953;29;20044;-60
2023/12/16 06:28:42;;;;;;;0.40;0.38;;;9.10;99.90;;;;;;4871523;29;20064;-61
2023/12/16 06:31:16;;;;;;;1.88;0.50;;;9.10;99.90;;;;;;4863038;29;20041;-60
2023/12/16 06:33:45;;;;;;;3.30;0.70;;;9.10;99.90;;;;;;4868970;29;20060;-62
2023/12/16 06:36:13;;;;;;;0.75;0.60;;;9.10;99.90;;;;;;4861865;29;20046;-62
2023/12/16 06:38:41;;;;;;;1.35;0.60;;;9.10;99.90;;;;;;4860266;29;20048;-62
2023/12/16 06:41:09;;;;;;;1.50;0.60;;;9.10;99.90;;;;;;4862247;29;20063;-62
2023/12/16 06:43:37;;;;;;;2.05;0.85;;;9.20;99.90;;;;;;4866826;29;20489;-62
2023/12/16 06:46:08;;;;;;;1.08;0.63;;;9.20;99.90;;;;;;4857237;29;20386;-62
2023/12/16 06:48:37;;;;;;;1.95;1.00;;;9.20;99.90;;;;;;4866360;29;20061;-62
2023/12/16 06:51:05;;;;;;;1.38;1.15;;;9.30;99.90;;;;;;4871281;29;20215;-62
2023/12/16 06:53:35;;;;;;;1.67;0.82;;;9.30;99.90;;;;;;4867331;29;20049;-62
2023/12/16 06:56:04;;;;;;;1.33;1.08;;;9.30;99.90;;;;;;4855780;29;20060;-62
2023/12/16 06:58:32;;;;;;;1.55;1.00;;;9.30;99.90;;;;;;4871873;29;20064;-62
2023/12/16 07:01:00;;;;;;;1.30;1.00;;;9.20;99.90;;;;;;4871091;29;20056;-63
2023/12/16 07:03:28;;;;;;;1.88;1.02;;;9.20;99.90;;;;;;4864952;29;20045;-62
2023/12/16 07:05:56;;;;;;;4.28;1.45;;;9.20;99.90;;;;;;4858183;29;20034;-62
2023/12/16 07:08:25;;;;;;;2.08;1.00;;;9.10;99.90;;;;;;4867651;29;20056;-62
2023/12/16 07:10:53;;;;;;;1.40;0.98;;;9.10;99.90;;;;;;4862423;29;20057;-64
2023/12/16 07:13:21;;;;;;;1.90;1.30;;;9.00;99.90;;;;;;4860436;29;20041;-62
2023/12/16 07:15:49;;;;;;;4.55;1.70;;;9.00;99.90;;;;;;4855626;29;20049;-62
2023/12/16 07:18:17;;;;;;;2.10;1.50;;;9.00;99.90;;;;;;4855207;29;20053;-61
2023/12/16 07:20:48;;;;;;;1.98;1.35;;;8.90;99.90;;;;;;4853715;29;20530;-62
2023/12/16 07:23:15;;;;;;;2.15;1.27;;;8.90;99.90;;;;;;4862611;29;20056;-62
2023/12/16 07:25:43;;;;;;;3.05;1.33;;;8.90;99.90;;;;;;4854327;29;20053;-62
2023/12/16 07:28:11;;;;;;;1.67;1.38;;;8.90;99.90;;;;;;4865654;29;20049;-62
2023/12/16 07:30:39;;;;;;;1.98;1.25;;;8.90;99.90;;;;;;4865700;29;20053;-63
2023/12/16 07:33:07;;;;;;;2.80;1.52;;;8.80;99.90;;;;;;4857376;29;20056;-62
2023/12/16 07:35:38;;;;;;;1.77;1.20;;;8.90;99.90;;;;;;4867893;29;20060;-62
2023/12/16 07:38:07;;;;;;;2.65;1.08;;;8.90;99.90;;;;;;4855224;29;20057;-62
2023/12/16 07:40:36;;;;;;;4.80;1.27;;;9.00;99.90;;;;;;4861265;29;20417;-61
2023/12/16 07:43:04;;;;;;;1.33;1.10;;;9.00;99.90;;;;;;4870383;29;20052;-62
2023/12/16 07:45:34;;;;;;;2.55;1.10;;;9.00;99.90;;;;;;4871798;29;20060;-62
2023/12/16 07:48:02;;;;;;;2.10;0.95;;;9.10;99.90;;;;;;4865933;29;20056;-62
2023/12/16 07:50:30;;;;;;;1.80;1.17;;;9.10;99.90;;;;;;4863450;29;20064;-61
2023/12/16 07:52:58;;;;;;;1.92;1.33;;;9.20;99.90;;;;;;4863010;29;20409;-69
2023/12/16 07:55:27;;;;;;;1.20;0.88;;;9.20;99.90;;;;;;4875846;29;20064;-65
2023/12/16 07:57:55;;;;;;;3.03;1.00;;;9.20;99.90;;;;;;4871567;29;20049;-69
2023/12/16 08:00:23;;;;;;;1.60;1.05;;;9.20;99.90;;;;;;4874943;29;20065;-70
2023/12/16 08:02:51;;;;;;;1.65;1.08;;;9.20;99.90;;;;;;4860837;29;20482;-67
2023/12/16 08:05:18;;;;;;;1.27;0.90;;;9.20;99.90;;;;;;4856860;29;20525;-71
2023/12/16 08:07:46;;;;;;;1.55;0.80;;;9.10;99.90;;;;;;4870106;29;20081;-68
2023/12/16 08:10:14;;;;;;;1.40;0.73;;;9.10;99.90;;;;;;4858762;29;20438;-71
2023/12/16 08:12:42;;;;;;;1.52;0.75;;;9.10;99.90;;;;;;4858848;29;20080;-71
2023/12/16 08:15:10;;;;;;;0.70;0.70;;;9.10;99.90;;;;;;4862858;29;20386;-68
2023/12/16 08:17:39;;;;;;;1.35;1.02;;;9.00;99.90;;;;;;4865893;29;20049;-71
2023/12/16 08:20:09;;;;;;;1.35;1.20;;;9.00;99.90;;;;;;4860839;29;20407;-69
2023/12/16 08:22:37;;;;;;;1.55;1.35;;;9.00;99.90;;;;;;4864049;29;20054;-70
2023/12/16 08:25:05;;;;;;;1.10;1.00;;;9.00;99.90;;;;;;4858368;29;20061;-71
2023/12/16 08:27:32;;;;;;;1.30;0.95;;;9.00;99.90;;;;;;4860866;29;20049;-70
2023/12/16 08:30:00;;;;;;;1.23;0.93;;;8.90;99.90;;;;;;4859059;29;20053;-69
2023/12/16 08:32:28;;;;;;;2.47;0.90;;;8.90;99.90;;;;;;4864015;29;20053;-62
2023/12/16 08:34:55;;;;;;;0.80;0.70;;;8.90;99.90;;;;;;4864391;29;20876;-68
2023/12/16 08:37:23;;;;;;;0.77;0.77;;;8.90;99.90;;;;;;4855661;29;20056;-67
2023/12/16 08:39:52;;;;;;;0.45;0.45;;;8.90;99.90;;;;;;4869375;29;20064;-70
2023/12/16 08:42:20;;;;;;;0.85;0.35;;;8.90;99.90;;;;;;4866042;29;20056;-70
2023/12/16 08:44:48;;;;;;;0.65;0.50;;;8.90;99.90;;;;;;4864410;29;20066;-69
2023/12/16 08:47:16;;;;;;;0.38;0.32;;;8.90;99.90;;;;;;4867004;29;20061;-63
2023/12/16 08:49:44;;;;;;;2.50;0.40;;;8.90;99.90;;;;;;4865795;29;20058;-71
2023/12/16 08:52:12;;;;;;;2.20;0.45;;;8.90;99.90;;;;;;4881667;29;20639;-64
2023/12/16 08:54:41;;;;;;;0.38;0.30;;;9.00;99.90;;;;;;4875513;29;20621;-62
2023/12/16 08:57:09;;;;;;;0.20;0.20;;;9.00;99.90;;;;;;4863819;29;20049;-62
2023/12/16 08:59:37;;;;;;;1.17;0.38;;;9.00;99.90;;;;;;4862273;29;20054;-62
2023/12/16 09:02:05;;;;;;;0.88;0.45;;;9.00;99.90;;;;;;4865616;29;20409;-63
2023/12/16 09:04:33;;;;;;;0.30;0.30;;;9.00;99.90;;;;;;4858315;29;20053;-63
2023/12/16 09:07:01;;;;;;;0.22;0.20;;;9.10;99.90;;;;;;4862563;29;20045;-63
2023/12/16 09:09:29;;;;;;;0.30;0.22;;;9.10;99.90;;;;;;4864606;29;20053;-62
2023/12/16 09:11:57;;;;;;;0.35;0.28;;;9.10;99.90;;;;;;4861201;29;20068;-60
2023/12/16 09:14:24;;;;;;;0.50;0.25;;;9.20;99.90;;;;;;4872082;29;20422;-60
2023/12/16 09:16:52;;;;;;;0.20;0.20;;;9.20;99.90;;;;;;4858025;29;20041;-62
2023/12/16 09:19:20;;;;;;;0.40;0.28;;;9.20;99.90;;;;;;4872326;29;20433;-60
2023/12/16 09:21:49;;;;;;;0.45;0.40;;;9.30;99.90;;;;;;4867580;29;20049;-63
2023/12/16 09:24:17;;;;;;;0.20;0.20;;;9.30;99.90;;;;;;4869498;29;20410;-60
2023/12/16 09:26:45;;;;;;;0.73;0.30;;;9.30;99.90;;;;;;4867952;29;20058;-61
2023/12/16 09:29:13;;;;;;;2.25;0.30;;;9.40;99.90;;;;;;4872455;29;20045;-61
2023/12/16 09:31:42;;;;;;;0.50;0.40;;;9.40;99.90;;;;;;4862129;29;20406;-64
2023/12/16 09:34:10;;;;;;;0.38;0.22;;;9.40;99.90;;;;;;4869326;29;20064;-62
2023/12/16 09:36:38;;;;;;;0.50;0.30;;;9.40;99.90;;;;;;4864607;29;20056;-62
2023/12/16 09:39:06;;;;;;;0.57;0.32;;;9.30;99.90;;;;;;4871906;29;20053;-62
2023/12/16 09:41:41;;;;;;;0.43;0.35;;;9.30;99.90;;;;;;4866401;29;20080;-63
2023/12/16 09:44:16;;;;;;;2.20;0.40;;;9.30;99.90;;;;;;4863619;29;20510;-61
2023/12/16 09:46:48;;;;;;;0.40;0.30;;;9.30;99.90;;;;;;4860355;29;20506;-61
2023/12/16 09:49:16;;;;;;;0.20;0.20;;;9.30;99.90;;;;;;4857341;29;20061;-62
2023/12/16 09:51:44;;;;;;;0.30;0.20;;;9.30;99.90;;;;;;4857556;29;20065;-61
2023/12/16 09:54:16;;;;;;;0.38;0.20;;;9.30;99.90;;;;;;4860227;29;20046;-63
2023/12/16 09:56:48;;;;;;;0.50;0.20;;;9.30;99.90;;;;;;4873224;29;20069;-62
2023/12/16 09:59:20;;;;;;;0.40;0.40;;;9.40;99.90;;;;;;4865709;29;20041;-62
2023/12/16 10:01:58;;;;;;;0.25;0.15;;;9.40;99.90;;;;;;4863974;29;20073;-60
2023/12/16 10:04:30;;;;;;;0.38;0.20;;;9.40;99.90;;;;;;4858397;29;20525;-62
2023/12/16 10:06:58;;;;;;;1.20;0.25;;;9.40;99.90;;;;;;4857868;29;20049;-65
2023/12/16 10:09:26;;;;;;;1.00;0.20;;;9.50;99.90;;;;;;4871015;29;20057;-63
2023/12/16 10:11:57;;;;;;;0.35;0.30;;;9.50;99.90;;;;;;4862954;29;20410;-63
2023/12/16 10:14:25;;;;;;;0.40;0.17;;;9.60;99.90;;;;;;4859291;29;20060;-63
2023/12/16 10:17:02;;;;;;;1.38;0.30;;;9.70;99.90;;;;;;4855836;29;20061;-67
2023/12/16 10:19:30;;;;;;;0.65;0.20;;;9.70;99.90;;;;;;4858414;29;20061;-69
2023/12/16 10:21:58;;;;;;;0.22;0.22;;;9.80;99.90;;;;;;4857668;29;20405;-71
2023/12/16 10:24:26;;;;;;;0.60;0.40;;;9.80;99.90;;;;;;4861562;29;20065;-72
2023/12/16 10:26:55;;;;;;;0.47;0.43;;;9.90;99.90;;;;;;4857088;29;20053;-71
2023/12/16 10:29:24;;;;;;;1.42;0.30;;;9.90;99.90;;;;;;4866652;29;20399;-67
2023/12/16 10:31:53;;;;;;;0.20;0.20;;;9.90;99.90;;;;;;4868492;29;20490;-66
2023/12/16 10:34:21;;;;;;;0.40;0.30;;;10.00;99.90;;;;;;4871455;29;20048;-71
2023/12/16 10:36:49;;;;;;;1.35;0.30;;;10.00;99.90;;;;;;4856655;29;20069;-71
2023/12/16 10:39:17;;;;;;;0.68;0.20;;;10.10;99.90;;;;;;4873230;29;20064;-68
2023/12/16 10:41:45;;;;;;;0.20;0.20;;;10.10;99.90;;;;;;4872740;29;20065;-69
2023/12/16 10:44:13;;;;;;;0.20;0.17;;;10.20;99.90;;;;;;4872923;29;20045;-69
2023/12/16 10:46:42;;;;;;;0.10;0.10;;;10.20;99.90;;;;;;4875186;29;20049;-64
2023/12/16 10:49:12;;;;;;;0.43;0.30;;;10.20;99.90;;;;;;4862922;29;20061;-71
2023/12/16 10:51:44;;;;;;;0.10;0.10;;;10.20;99.90;;;;;;4862246;29;20045;-72
2023/12/16 10:54:28;;;;;;;0.30;0.30;;;10.30;99.90;;;;;;4858421;29;20045;-68
2023/12/16 10:57:25;;;;;;;0.28;0.25;;;10.30;99.90;;;;;;4872982;29;20052;-70
2023/12/16 11:00:05;;;;;;;0.30;0.17;;;10.20;99.90;;;;;;4856325;29;20061;-71
2023/12/16 11:03:01;;;;;;;1.35;0.20;;;10.30;99.90;;;;;;4869919;29;20117;-63
2023/12/16 11:05:34;;;;;;;0.30;0.15;;;10.20;99.90;;;;;;4869731;29;20052;-65
2023/12/16 11:08:03;;;;;;;0.22;0.20;;;10.20;99.90;;;;;;4870835;29;20053;-64
2023/12/16 11:10:31;;;;;;;1.17;0.30;;;10.30;99.90;;;;;;4862559;29;20417;-66
2023/12/16 11:13:02;;;;;;;0.15;0.13;;;10.30;99.90;;;;;;4864794;29;20080;-63
2023/12/16 11:15:34;;;;;;;0.32;0.10;;;10.30;99.90;;;;;;4862025;29;20053;-72
2023/12/16 11:18:20;;;;;;;0.22;0.20;;;10.40;99.90;;;;;;4858720;29;20053;-71
2023/12/16 11:20:49;;;;;;;0.10;0.10;;;10.60;99.90;;;;;;4860250;29;20065;-70
2023/12/16 11:23:20;;;;;;;0.10;0.10;;;10.70;99.90;;;;;;4861304;29;20057;-71
2023/12/16 11:25:49;;;;;;;0.90;0.15;;;10.90;99.90;;;;;;4855925;29;20398;-69
2023/12/16 11:28:18;;;;;;;0.73;0.30;;;11.10;99.90;;;;;;4872973;29;20056;-63
2023/12/16 11:30:45;;;;;;;0.25;0.25;;;11.30;99.90;;;;;;4867321;29;20058;-63
2023/12/16 11:33:13;;;;;;;1.83;0.50;;;11.60;99.90;;;;;;4881570;29;20045;-62
2023/12/16 11:35:52;;;;;;;1.83;0.40;;;11.70;99.90;;;;;;4853343;29;20054;-62
2023/12/16 11:38:52;;;;;;;0.45;0.20;;;11.90;99.90;;;;;;4863381;29;20410;-62
2023/12/16 11:41:36;;;;;;;0.85;0.40;;;12.10;99.90;;;;;;4833388;29;20054;-62
2023/12/16 11:44:04;;;;;;;0.95;0.20;;;12.10;99.90;;;;;;4854405;29;20053;-67
2023/12/16 11:46:38;;;;;;;0.10;0.10;;;12.10;99.90;;;;;;4855826;29;20049;-66
2023/12/16 11:49:10;;;;;;;0.10;0.10;;;12.30;99.90;;;;;;4860423;29;20223;-62
2023/12/16 11:51:39;;;;;;;1.73;0.32;;;12.40;99.90;;;;;;4856732;29;20053;-62
2023/12/16 11:54:09;;;;;;;0.55;0.20;;;12.70;99.90;;;;;;4858171;29;20064;-63
2023/12/16 11:56:36;;;;;;;0.20;0.20;;;12.80;99.90;;;;;;4869068;29;20055;-60
2023/12/16 11:59:05;;;;;;;0.45;0.32;;;13.00;99.90;;;;;;4870886;29;20052;-60
2023/12/16 12:01:33;;;;;;;0.55;0.30;;;13.20;99.90;;;;;;4855849;29;20233;-59
2023/12/16 12:04:03;;;;;;;0.40;0.10;;;13.40;99.90;;;;;;4885873;29;20533;-61
2023/12/16 12:06:32;;;;;;;0.10;0.10;;;13.70;99.90;;;;;;4862790;29;20489;-60
2023/12/16 12:09:00;;;;;;;0.10;0.10;;;13.80;99.90;;;;;;4872110;29;20609;-59
2023/12/16 12:11:28;;;;;;;0.73;0.30;;;14.00;99.90;;;;;;4871817;29;20116;-60
2023/12/16 12:13:56;;;;;;;0.25;0.13;;;14.20;99.90;;;;;;4857364;29;20061;-60
2023/12/16 12:16:28;;;;;;;1.35;0.22;;;14.40;99.90;;;;;;4857948;29;20805;-60
2023/12/16 12:18:56;;;;;;;0.20;0.13;;;14.50;99.90;;;;;;4867910;29;20064;-60
2023/12/16 12:21:24;;;;;;;1.20;0.10;;;14.50;99.90;;;;;;4866200;29;20049;-59
2023/12/16 12:23:52;;;;;;;0.17;0.10;;;14.60;99.90;;;;;;4874091;29;20410;-60
2023/12/16 12:26:23;;;;;;;0.40;0.20;;;14.80;99.90;;;;;;4859043;29;20049;-59
2023/12/16 12:28:59;;;;;;;0.60;0.10;;;14.90;99.90;;;;;;4868960;29;20049;-61
2023/12/16 12:31:30;;;;;;;1.70;0.20;;;15.10;99.90;;;;;;4859542;29;20056;-60
2023/12/16 12:33:58;;;;;;;0.22;0.22;;;15.30;99.90;;;;;;4870603;29;20067;-59
2023/12/16 12:36:26;;;;;;;0.00;0.00;;;15.50;99.90;;;;;;4871098;29;20049;-60
2023/12/16 12:38:54;;;;;;;0.30;0.10;;;15.60;99.90;;;;;;4864267;29;20049;-59
2023/12/16 12:41:23;;;;;;;0.30;0.10;;;15.60;99.90;;;;;;4864976;29;20053;-59
2023/12/16 12:43:50;;;;;;;0.25;0.20;;;15.50;99.90;;;;;;4868653;29;20052;-60
2023/12/16 12:46:18;;;;;;;0.98;0.40;;;15.70;99.90;;;;;;4865411;29;20049;-61
2023/12/16 12:48:54;;;;;;;0.50;0.25;;;15.70;99.90;;;;;;4871716;29;20057;-60
2023/12/16 12:51:23;;;;;;;0.65;0.30;;;15.60;99.90;;;;;;4862246;29;20049;-60
2023/12/16 12:53:56;;;;;;;0.47;0.25;;;15.60;99.90;;;;;;4858952;29;20053;-60
2023/12/16 12:56:28;;;;;;;1.33;0.45;;;15.70;99.90;;;;;;4862586;29;20044;-59
2023/12/16 12:58:58;;;;;;;0.30;0.30;;;15.90;99.90;;;;;;4875106;29;20045;-59
2023/12/16 13:01:26;;;;;;;2.55;0.30;;;16.20;99.90;;;;;;4858303;29;20050;-59